Time;durP1;ratioP1;P1;durP2;ratioP2;P2;SDS_P1;SDS_P2;PMS_P1;PMS_P2;Temp;Humidity;BMP_temperature;BMP_pressure;BME280_temperature;BME280_humidity;BME280_pressure;Samples;Min_cycle;Max_cycle;Signal;HPM_P1;HPM_P2
2023/01/26 00:00:06;;;;;;;22.17;10.13;;;1.70;90.60;;;;;;5071368;28;20032;-77
2023/01/26 00:02:32;;;;;;;21.10;10.65;;;1.70;90.70;;;;;;5073543;28;20040;-75
2023/01/26 00:04:57;;;;;;;21.92;10.55;;;1.70;90.70;;;;;;5054105;28;20047;-76
2023/01/26 00:07:23;;;;;;;21.30;10.35;;;1.70;90.70;;;;;;5060756;28;20035;-76
2023/01/26 00:09:48;;;;;;;19.27;9.57;;;1.70;90.60;;;;;;5084478;28;20563;-74
2023/01/26 00:12:14;;;;;;;15.95;8.60;;;1.60;90.60;;;;;;5069077;27;20133;-75
2023/01/26 00:14:51;;;;;;;19.27;9.68;;;1.60;90.60;;;;;;5017749;28;20531;-75
2023/01/26 00:17:37;;;;;;;21.48;10.48;;;1.60;90.60;;;;;;5070396;28;20035;-75
2023/01/26 00:20:03;;;;;;;21.77;10.30;;;1.70;90.70;;;;;;5076903;28;20036;-75
2023/01/26 00:22:28;;;;;;;20.65;10.45;;;1.70;90.60;;;;;;5055637;28;20047;-76
2023/01/26 00:24:54;;;;;;;20.38;10.00;;;1.70;90.70;;;;;;5076389;27;20891;-76
2023/01/26 00:27:19;;;;;;;18.75;9.88;;;1.70;90.70;;;;;;5060705;28;20753;-75
2023/01/26 00:29:45;;;;;;;20.70;10.13;;;1.70;90.70;;;;;;5079484;27;20031;-75
2023/01/26 00:32:10;;;;;;;17.98;8.73;;;1.70;90.70;;;;;;5064620;28;20043;-75
2023/01/26 00:34:36;;;;;;;21.33;9.93;;;1.70;90.70;;;;;;5053878;27;20031;-75
2023/01/26 00:37:01;;;;;;;18.65;9.25;;;1.70;90.70;;;;;;5075526;28;20044;-76
2023/01/26 00:39:27;;;;;;;19.73;8.95;;;1.70;90.70;;;;;;5053744;28;20055;-76
2023/01/26 00:42:05;;;;;;;21.40;9.05;;;1.70;90.70;;;;;;5078057;27;20031;-76
2023/01/26 00:44:30;;;;;;;16.95;9.20;;;1.70;90.70;;;;;;5053188;28;20151;-75
2023/01/26 00:46:56;;;;;;;19.23;10.15;;;1.70;90.70;;;;;;5064519;28;20040;-75
2023/01/26 00:49:22;;;;;;;19.05;9.98;;;1.70;90.70;;;;;;5059194;28;20517;-75
2023/01/26 00:51:47;;;;;;;18.30;9.65;;;1.70;90.70;;;;;;5080399;27;20034;-75
2023/01/26 00:54:13;;;;;;;17.25;9.55;;;1.70;90.70;;;;;;5073579;28;20050;-75
2023/01/26 00:56:38;;;;;;;19.92;10.40;;;1.70;90.70;;;;;;5058440;28;20039;-75
2023/01/26 00:59:05;;;;;;;21.85;10.02;;;1.70;90.70;;;;;;5061578;28;20116;-76
2023/01/26 01:01:30;;;;;;;18.58;9.85;;;1.80;90.80;;;;;;5078302;28;20035;-75
2023/01/26 01:03:56;;;;;;;21.05;10.48;;;1.80;90.70;;;;;;5075821;28;20032;-76
2023/01/26 01:06:21;;;;;;;19.10;9.18;;;1.70;90.70;;;;;;5076208;28;20505;-75
2023/01/26 01:08:47;;;;;;;19.45;10.05;;;1.80;90.70;;;;;;5049605;28;20039;-75
2023/01/26 01:11:13;;;;;;;21.10;9.38;;;1.80;90.70;;;;;;5045172;28;20020;-76
2023/01/26 01:13:38;;;;;;;17.95;9.50;;;1.80;90.80;;;;;;5091434;28;20046;-76
2023/01/26 01:16:05;;;;;;;17.95;9.30;;;1.80;90.80;;;;;;5058693;28;20449;-75
2023/01/26 01:18:31;;;;;;;19.98;10.05;;;1.80;90.80;;;;;;5043830;28;20085;-76
2023/01/26 01:20:57;;;;;;;17.52;9.20;;;1.80;90.80;;;;;;5047114;28;20503;-76
2023/01/26 01:23:22;;;;;;;17.23;9.32;;;1.80;90.70;;;;;;5078907;28;20299;-76
2023/01/26 01:25:56;;;;;;;18.98;10.25;;;1.80;90.80;;;;;;5075723;28;20418;-76
2023/01/26 01:28:21;;;;;;;19.48;9.48;;;1.80;90.80;;;;;;5078117;28;20097;-75
2023/01/26 01:30:47;;;;;;;17.80;9.75;;;1.80;90.80;;;;;;5057530;28;20032;-76
2023/01/26 01:33:12;;;;;;;21.20;10.52;;;1.80;90.80;;;;;;5061213;28;20063;-77
2023/01/26 01:35:38;;;;;;;19.92;9.43;;;1.80;90.80;;;;;;5053209;27;20832;-78
2023/01/26 01:38:03;;;;;;;19.90;10.27;;;1.70;90.70;;;;;;5060060;27;20039;-75
2023/01/26 01:40:29;;;;;;;21.20;11.00;;;1.70;90.70;;;;;;5076766;28;20040;-76
2023/01/26 01:42:54;;;;;;;24.45;10.60;;;1.70;90.70;;;;;;5074696;28;20027;-76
2023/01/26 01:45:26;;;;;;;16.52;8.80;;;1.70;90.70;;;;;;5066323;28;20044;-75
2023/01/26 01:47:55;;;;;;;18.70;9.77;;;1.70;90.70;;;;;;5093765;28;20094;-76
2023/01/26 01:50:21;;;;;;;20.40;8.95;;;1.70;90.70;;;;;;5079047;28;20765;-74
2023/01/26 01:52:46;;;;;;;19.38;9.23;;;1.70;90.70;;;;;;5077483;28;20043;-75
2023/01/26 01:55:12;;;;;;;16.88;8.93;;;1.70;90.70;;;;;;5074044;28;20036;-77
2023/01/26 01:57:46;;;;;;;17.92;9.45;;;1.70;90.70;;;;;;5059423;28;20047;-76
2023/01/26 02:00:17;;;;;;;20.85;10.25;;;1.70;90.70;;;;;;5064320;28;20036;-76
2023/01/26 02:02:43;;;;;;;20.57;10.17;;;1.70;90.80;;;;;;5078863;28;20036;-76
2023/01/26 02:05:24;;;;;;;19.20;9.90;;;1.70;90.80;;;;;;5062167;28;20273;-75
2023/01/26 02:07:50;;;;;;;20.40;10.65;;;1.70;90.80;;;;;;5073940;28;20031;-75
2023/01/26 02:10:19;;;;;;;19.25;9.70;;;1.70;90.80;;;;;;5058018;28;20483;-76
2023/01/26 02:12:50;;;;;;;20.27;9.70;;;1.70;90.80;;;;;;5075435;28;20051;-75
2023/01/26 02:15:16;;;;;;;17.73;10.15;;;1.70;90.70;;;;;;5057059;28;20811;-74
2023/01/26 02:17:41;;;;;;;21.73;10.27;;;1.70;90.70;;;;;;5076901;28;20035;-74
2023/01/26 02:20:15;;;;;;;21.90;10.65;;;1.70;90.70;;;;;;5062304;28;20047;-76
2023/01/26 02:23:00;;;;;;;23.02;10.20;;;1.60;90.70;;;;;;5077003;28;20036;-74
2023/01/26 02:25:43;;;;;;;18.50;9.57;;;1.60;90.70;;;;;;5031255;28;20057;-76
2023/01/26 02:28:08;;;;;;;19.70;9.85;;;1.60;90.70;;;;;;5073972;28;20492;-76
2023/01/26 02:30:34;;;;;;;21.50;9.85;;;1.60;90.70;;;;;;5075635;28;20043;-76
2023/01/26 02:33:00;;;;;;;22.58;10.68;;;1.60;90.80;;;;;;5065059;28;20036;-77
2023/01/26 02:35:25;;;;;;;18.00;8.88;;;1.60;90.80;;;;;;5078248;28;20135;-76
2023/01/26 02:37:51;;;;;;;18.67;9.60;;;1.60;90.80;;;;;;5092428;28;20074;-76
2023/01/26 02:40:24;;;;;;;20.10;9.35;;;1.60;90.70;;;;;;5058952;28;20063;-75
2023/01/26 02:42:53;;;;;;;19.80;8.70;;;1.60;90.70;;;;;;5043192;28;20123;-76
2023/01/26 02:45:19;;;;;;;22.02;10.07;;;1.60;90.80;;;;;;5077209;28;20035;-77
2023/01/26 02:47:44;;;;;;;20.55;9.98;;;1.60;90.70;;;;;;5062392;28;20041;-74
2023/01/26 02:50:10;;;;;;;19.98;9.73;;;1.60;90.70;;;;;;5079006;28;20031;-74
2023/01/26 02:52:36;;;;;;;19.98;9.38;;;1.60;90.70;;;;;;5068454;27;20040;-76
2023/01/26 02:57:46;;;;;;;18.48;8.93;;;1.60;90.70;;;;;;5082866;27;20047;-75
2023/01/26 03:00:19;;;;;;;23.30;10.38;;;1.60;90.70;;;;;;5036871;28;20040;-76
2023/01/26 03:02:45;;;;;;;23.23;10.25;;;1.60;90.70;;;;;;5087969;27;20046;-74
2023/01/26 03:05:10;;;;;;;25.20;11.20;;;1.60;90.70;;;;;;5071508;28;20426;-74
2023/01/26 03:07:36;;;;;;;23.10;10.00;;;1.60;90.80;;;;;;5070128;28;20048;-76
2023/01/26 03:10:02;;;;;;;18.70;9.52;;;1.60;90.80;;;;;;5073518;28;20038;-76
2023/01/26 03:12:28;;;;;;;21.35;10.38;;;1.60;91.20;;;;;;5061634;28;20485;-76
2023/01/26 03:17:37;;;;;;;23.20;9.55;;;1.60;90.80;;;;;;5088051;28;20104;-75
2023/01/26 03:28:22;;;;;;;21.63;10.13;;;1.60;90.80;;;;;;5083621;28;20067;-76
2023/01/26 03:30:48;;;;;;;28.88;11.52;;;1.60;90.80;;;;;;5079004;28;20035;-76
2023/01/26 03:33:15;;;;;;;28.77;11.90;;;1.60;90.80;;;;;;5094610;27;20040;-76
2023/01/26 03:35:40;;;;;;;27.63;12.07;;;1.60;90.80;;;;;;5076797;28;20043;-75
2023/01/26 03:38:06;;;;;;;24.52;11.02;;;1.60;90.80;;;;;;5060045;28;20027;-76
2023/01/26 03:57:01;;;;;;;21.17;9.88;;;1.50;90.80;;;;;;5095387;27;20627;-75
2023/01/26 03:59:38;;;;;;;25.75;10.27;;;1.60;90.90;;;;;;5049607;28;20032;-76
2023/01/26 04:10:17;;;;;;;19.83;8.60;;;1.50;90.80;;;;;;5083135;27;20100;-75
2023/01/26 04:12:43;;;;;;;20.38;9.13;;;1.50;90.90;;;;;;5081169;28;20039;-76
2023/01/26 04:23:21;;;;;;;18.83;9.43;;;1.50;90.90;;;;;;5094615;27;20047;-76
2023/01/26 04:25:47;;;;;;;21.55;9.65;;;1.50;91.00;;;;;;5076423;28;20051;-74
2023/01/26 04:28:12;;;;;;;19.60;8.05;;;1.50;90.90;;;;;;5058807;28;20038;-76
2023/01/26 04:30:38;;;;;;;17.48;7.78;;;1.50;90.90;;;;;;5054844;28;20127;-76
2023/01/26 04:33:04;;;;;;;16.90;8.15;;;1.50;90.90;;;;;;5047348;28;20040;-76
2023/01/26 04:35:29;;;;;;;15.90;8.40;;;1.50;90.90;;;;;;5032681;28;21387;-77
2023/01/26 04:37:55;;;;;;;15.88;7.85;;;1.50;90.90;;;;;;5042307;28;20113;-76
2023/01/26 04:40:20;;;;;;;16.85;7.82;;;1.50;90.90;;;;;;5047520;28;20457;-75
2023/01/26 04:42:46;;;;;;;42.63;25.73;;;1.50;90.90;;;;;;5058593;28;20680;-76
2023/01/26 04:45:11;;;;;;;27.35;15.70;;;1.50;90.90;;;;;;5075382;28;20058;-76
2023/01/26 04:47:37;;;;;;;16.05;7.88;;;1.50;90.90;;;;;;5054433;28;20040;-76
2023/01/26 04:50:03;;;;;;;18.42;8.60;;;1.50;90.90;;;;;;5055261;28;20530;-75
2023/01/26 04:52:28;;;;;;;13.80;7.07;;;1.50;90.90;;;;;;5055958;28;20495;-76
2023/01/26 04:54:54;;;;;;;14.40;7.68;;;1.50;90.90;;;;;;5058116;28;20032;-76
2023/01/26 04:57:20;;;;;;;14.45;7.43;;;1.50;90.90;;;;;;5018287;28;20474;-76
2023/01/26 04:59:45;;;;;;;16.90;8.63;;;1.50;90.90;;;;;;5057721;28;20032;-76
2023/01/26 05:02:11;;;;;;;18.58;9.55;;;1.50;90.90;;;;;;5045337;28;20036;-76
2023/01/26 05:04:36;;;;;;;249.20;102.60;;;1.40;90.90;;;;;;5055967;28;20074;-75
2023/01/26 05:07:02;;;;;;;66.35;31.63;;;1.40;90.90;;;;;;5076066;28;20130;-75
2023/01/26 05:09:27;;;;;;;21.70;11.48;;;1.40;90.90;;;;;;5045781;28;20036;-76
2023/01/26 05:11:53;;;;;;;13.23;7.63;;;1.40;90.90;;;;;;5047940;28;20028;-76
2023/01/26 05:14:18;;;;;;;11.70;6.53;;;1.40;90.90;;;;;;5043524;28;20036;-76
2023/01/26 05:16:44;;;;;;;15.32;6.57;;;1.40;90.90;;;;;;5056021;28;20089;-77
2023/01/26 05:19:09;;;;;;;11.77;5.88;;;1.40;90.90;;;;;;5053449;28;20032;-75
2023/01/26 05:21:35;;;;;;;11.63;5.57;;;1.40;90.90;;;;;;5055340;28;20056;-76
2023/01/26 05:24:01;;;;;;;11.63;6.07;;;1.30;90.80;;;;;;5056281;28;20032;-76
2023/01/26 05:26:26;;;;;;;12.65;7.88;;;1.30;90.80;;;;;;5042765;28;20115;-77
2023/01/26 05:28:52;;;;;;;11.82;6.57;;;1.30;90.80;;;;;;5049775;28;20041;-74
2023/01/26 05:31:17;;;;;;;12.68;5.88;;;1.30;90.90;;;;;;5059638;28;20055;-76
2023/01/26 05:33:43;;;;;;;11.32;6.10;;;1.30;90.80;;;;;;5056554;28;20021;-76
2023/01/26 05:36:08;;;;;;;12.00;6.28;;;1.30;90.80;;;;;;5052467;28;20052;-76
2023/01/26 05:38:34;;;;;;;11.52;6.00;;;1.30;90.80;;;;;;5053170;28;20461;-77
2023/01/26 05:40:59;;;;;;;11.68;6.18;;;1.30;90.80;;;;;;5039232;28;20597;-74
2023/01/26 05:43:25;;;;;;;11.93;5.93;;;1.30;90.80;;;;;;5056067;28;20032;-76
2023/01/26 05:45:51;;;;;;;10.63;6.07;;;1.30;90.80;;;;;;5059082;28;20054;-76
2023/01/26 05:48:16;;;;;;;11.60;5.85;;;1.30;90.80;;;;;;5036923;28;20035;-74
2023/01/26 05:50:42;;;;;;;10.88;4.97;;;1.30;91.20;;;;;;5041229;28;20043;-76
2023/01/26 05:53:07;;;;;;;10.90;5.88;;;1.30;90.80;;;;;;5053228;28;20040;-75
2023/01/26 05:55:33;;;;;;;11.50;5.38;;;1.30;90.80;;;;;;5038198;28;20047;-76
2023/01/26 05:57:59;;;;;;;11.95;5.88;;;1.30;90.80;;;;;;5040929;28;20155;-76
2023/01/26 06:00:25;;;;;;;10.52;5.70;;;1.30;90.80;;;;;;5057403;28;20043;-71
2023/01/26 06:02:50;;;;;;;11.70;6.07;;;1.30;90.80;;;;;;5071695;28;20036;-76
2023/01/26 06:05:16;;;;;;;343.38;104.65;;;1.30;90.80;;;;;;5037654;28;20578;-74
2023/01/26 06:07:41;;;;;;;86.85;32.38;;;1.30;90.80;;;;;;5054686;28;20042;-76
2023/01/26 06:10:08;;;;;;;26.25;9.70;;;1.30;90.90;;;;;;5033240;28;20281;-76
2023/01/26 06:12:34;;;;;;;42.33;15.07;;;1.30;90.80;;;;;;5048452;28;20059;-75
2023/01/26 06:15:03;;;;;;;30.00;10.70;;;1.30;90.80;;;;;;5052450;28;20047;-75
2023/01/26 06:17:28;;;;;;;12.50;5.55;;;1.30;90.90;;;;;;5051895;28;20491;-75
2023/01/26 06:19:54;;;;;;;18.42;8.75;;;1.30;90.90;;;;;;5046214;28;20036;-75
2023/01/26 06:22:19;;;;;;;8.40;4.65;;;1.30;90.90;;;;;;5055305;28;20036;-76
2023/01/26 06:24:45;;;;;;;9.55;3.88;;;1.30;90.90;;;;;;5059645;28;20052;-75
2023/01/26 06:27:15;;;;;;;8.55;4.65;;;1.30;90.90;;;;;;5059314;28;20036;-75
2023/01/26 06:29:41;;;;;;;13.82;7.50;;;1.30;90.90;;;;;;5044280;28;20127;-76
2023/01/26 06:32:08;;;;;;;9.40;5.32;;;1.30;90.80;;;;;;5041383;28;20048;-75
2023/01/26 06:34:34;;;;;;;8.75;4.78;;;1.30;90.80;;;;;;5060389;28;20032;-75
2023/01/26 06:36:59;;;;;;;8.48;3.95;;;1.30;91.20;;;;;;5060497;28;20043;-74
2023/01/26 06:39:25;;;;;;;8.57;4.43;;;1.30;90.80;;;;;;5044245;28;20028;-77
2023/01/26 06:41:50;;;;;;;7.40;4.15;;;1.30;90.80;;;;;;5060148;28;20032;-77
2023/01/26 06:44:16;;;;;;;7.88;4.13;;;1.20;90.80;;;;;;5062580;28;20032;-76
2023/01/26 06:46:42;;;;;;;8.35;4.75;;;1.30;90.80;;;;;;5061690;28;20028;-75
2023/01/26 06:49:08;;;;;;;9.30;4.70;;;1.30;90.80;;;;;;5042931;28;20575;-77
2023/01/26 06:51:56;;;;;;;10.93;6.38;;;1.20;90.80;;;;;;5061449;28;20501;-78
2023/01/26 06:54:22;;;;;;;9.23;5.57;;;1.20;90.80;;;;;;5063213;28;20032;-76
2023/01/26 06:56:47;;;;;;;8.35;5.40;;;1.30;90.80;;;;;;5059225;28;20113;-76
2023/01/26 06:59:13;;;;;;;46.53;19.27;;;1.20;90.80;;;;;;5076257;28;20912;-76
2023/01/26 07:01:42;;;;;;;11.85;6.15;;;1.20;90.80;;;;;;5058968;28;20044;-75
2023/01/26 07:04:07;;;;;;;7.45;4.13;;;1.20;90.80;;;;;;5058551;28;20048;-75
2023/01/26 07:06:33;;;;;;;8.93;4.22;;;1.20;90.70;;;;;;5058315;28;20033;-75
2023/01/26 07:08:58;;;;;;;29.55;12.32;;;1.20;90.70;;;;;;5064052;28;20050;-76
2023/01/26 07:11:24;;;;;;;87.88;34.50;;;1.30;90.80;;;;;;5044292;28;20031;-76
2023/01/26 07:13:50;;;;;;;13.15;6.82;;;1.30;90.80;;;;;;5057188;28;20032;-76
2023/01/26 07:16:15;;;;;;;11.25;5.22;;;1.20;90.70;;;;;;5052766;28;20672;-78
2023/01/26 07:18:41;;;;;;;7.45;4.50;;;1.30;90.80;;;;;;5040356;28;20043;-78
2023/01/26 07:21:09;;;;;;;8.90;4.32;;;1.20;90.70;;;;;;5044270;28;20105;-79
2023/01/26 07:23:35;;;;;;;6.45;4.10;;;1.20;90.70;;;;;;5076210;28;20032;-70
2023/01/26 07:26:00;;;;;;;13.40;8.07;;;1.20;90.70;;;;;;5054697;28;20414;-70
2023/01/26 07:28:26;;;;;;;6.65;4.80;;;1.20;90.70;;;;;;5061592;28;20051;-76
2023/01/26 07:30:52;;;;;;;6.88;4.13;;;1.20;91.10;;;;;;5078051;28;20525;-73
2023/01/26 07:33:18;;;;;;;7.85;4.53;;;1.20;90.70;;;;;;5059848;28;20136;-76
2023/01/26 07:35:43;;;;;;;5.07;3.30;;;1.20;90.70;;;;;;5072060;28;20815;-76
2023/01/26 07:38:09;;;;;;;6.50;4.53;;;1.20;90.70;;;;;;5095873;28;20114;-76
2023/01/26 07:40:34;;;;;;;8.55;4.45;;;1.20;90.70;;;;;;5077287;28;20546;-75
2023/01/26 07:43:00;;;;;;;6.18;3.90;;;1.20;90.70;;;;;;5076154;28;20202;-76
2023/01/26 07:45:26;;;;;;;9.05;4.90;;;1.30;90.70;;;;;;5060482;28;20046;-76
2023/01/26 07:47:54;;;;;;;9.07;5.03;;;1.20;90.70;;;;;;5078772;28;20611;-77
2023/01/26 07:50:20;;;;;;;6.25;3.70;;;1.20;90.70;;;;;;5059954;28;20046;-76
2023/01/26 07:52:47;;;;;;;5.50;3.78;;;1.30;90.70;;;;;;5076766;28;20043;-77
2023/01/26 07:55:13;;;;;;;5.30;3.15;;;1.20;90.70;;;;;;5059707;28;20032;-76
2023/01/26 07:57:39;;;;;;;5.35;3.67;;;1.30;90.70;;;;;;5077733;28;20109;-76
2023/01/26 08:00:05;;;;;;;4.85;2.90;;;1.20;90.70;;;;;;5072813;27;20035;-77
2023/01/26 08:02:30;;;;;;;5.80;3.33;;;1.20;90.70;;;;;;5061922;28;20096;-77
2023/01/26 08:04:56;;;;;;;4.50;3.15;;;1.20;90.60;;;;;;5076124;28;20048;-76
2023/01/26 08:07:21;;;;;;;5.47;3.67;;;1.20;90.60;;;;;;5058204;28;20032;-77
2023/01/26 08:09:47;;;;;;;5.10;3.20;;;1.20;90.60;;;;;;5079531;28;20494;-75
2023/01/26 08:12:12;;;;;;;5.10;2.80;;;1.20;90.70;;;;;;5093601;28;20058;-76
2023/01/26 08:14:38;;;;;;;3.95;2.72;;;1.20;90.60;;;;;;5078621;28;20143;-76
2023/01/26 08:17:03;;;;;;;6.40;3.35;;;1.20;90.60;;;;;;5044803;28;20047;-76
2023/01/26 08:19:29;;;;;;;4.68;3.63;;;1.30;90.70;;;;;;5092947;28;20761;-74
2023/01/26 08:21:56;;;;;;;6.05;3.42;;;1.30;90.70;;;;;;5094117;28;20042;-76
2023/01/26 08:24:21;;;;;;;5.68;3.58;;;1.30;90.60;;;;;;5094228;28;20533;-76
2023/01/26 08:26:47;;;;;;;6.20;3.80;;;1.30;91.00;;;;;;5077169;28;20035;-78
2023/01/26 08:29:13;;;;;;;7.75;4.68;;;1.30;90.70;;;;;;5079914;27;20031;-77
2023/01/26 08:31:38;;;;;;;9.05;4.70;;;1.30;90.70;;;;;;5081682;28;20047;-77
2023/01/26 08:34:04;;;;;;;10.38;6.03;;;1.30;90.60;;;;;;5077384;28;20032;-73
2023/01/26 08:36:29;;;;;;;6.13;3.63;;;1.30;90.60;;;;;;5081618;28;20036;-77
2023/01/26 08:38:55;;;;;;;11.00;4.93;;;1.30;90.70;;;;;;5045211;27;20785;-78
2023/01/26 08:41:20;;;;;;;8.05;4.45;;;1.30;90.70;;;;;;5061643;27;20028;-76
2023/01/26 08:43:46;;;;;;;6.20;4.00;;;1.30;90.70;;;;;;5080370;27;20081;-77
2023/01/26 08:46:12;;;;;;;6.57;4.43;;;1.40;90.70;;;;;;5078543;28;20036;-77
2023/01/26 08:48:37;;;;;;;7.47;4.38;;;1.40;90.70;;;;;;5098480;27;20055;-76
2023/01/26 08:51:03;;;;;;;8.10;4.65;;;1.40;90.70;;;;;;5081583;27;20047;-77
2023/01/26 08:53:30;;;;;;;6.80;3.78;;;1.40;90.70;;;;;;5063790;27;20042;-76
2023/01/26 08:55:55;;;;;;;6.80;4.75;;;1.40;90.60;;;;;;5078783;28;20036;-76
2023/01/26 08:58:21;;;;;;;6.15;3.92;;;1.40;90.60;;;;;;5078723;27;20092;-76
2023/01/26 09:00:46;;;;;;;8.00;3.67;;;1.40;90.60;;;;;;5062838;28;20079;-77
2023/01/26 09:03:12;;;;;;;7.57;4.03;;;1.40;90.60;;;;;;5057134;28;20122;-76
2023/01/26 09:05:38;;;;;;;6.93;3.92;;;1.40;90.60;;;;;;5080630;27;20150;-79
2023/01/26 09:08:04;;;;;;;5.88;3.38;;;1.40;90.60;;;;;;5070991;28;20066;-75
2023/01/26 09:10:30;;;;;;;6.47;4.03;;;1.40;90.60;;;;;;5062025;27;20040;-76
2023/01/26 09:12:58;;;;;;;5.55;3.50;;;1.40;90.60;;;;;;5080803;28;20232;-77
2023/01/26 09:15:24;;;;;;;8.23;4.30;;;1.40;90.60;;;;;;5078255;28;20040;-77
2023/01/26 09:17:50;;;;;;;5.97;3.45;;;1.40;90.60;;;;;;5034650;28;20085;-76
2023/01/26 09:20:16;;;;;;;5.72;3.78;;;1.40;90.60;;;;;;5078344;28;20041;-76
2023/01/26 09:22:43;;;;;;;5.68;3.33;;;1.40;90.60;;;;;;5071099;28;20040;-76
2023/01/26 09:25:09;;;;;;;5.28;3.47;;;1.50;90.60;;;;;;5060937;28;20566;-77
2023/01/26 09:27:34;;;;;;;6.72;3.85;;;1.50;90.70;;;;;;5079321;28;20106;-74
2023/01/26 09:30:00;;;;;;;6.32;3.80;;;1.50;90.60;;;;;;5078242;27;20035;-76
2023/01/26 09:32:25;;;;;;;5.95;3.60;;;1.50;90.60;;;;;;5075169;28;20074;-75
2023/01/26 09:34:51;;;;;;;4.38;3.40;;;1.50;90.60;;;;;;5063014;28;20031;-77
2023/01/26 09:37:16;;;;;;;4.15;3.13;;;1.50;90.60;;;;;;5061304;28;20088;-76
2023/01/26 09:39:42;;;;;;;3.38;2.72;;;1.50;90.50;;;;;;5079328;27;20690;-77
2023/01/26 09:42:22;;;;;;;4.82;3.20;;;1.50;90.50;;;;;;5063375;28;20106;-77
2023/01/26 09:45:00;;;;;;;5.00;3.00;;;1.50;90.50;;;;;;5093914;28;20047;-76
2023/01/26 09:47:38;;;;;;;6.20;3.33;;;1.50;90.50;;;;;;5057251;28;20149;-76
2023/01/26 09:50:09;;;;;;;4.75;3.35;;;1.50;90.50;;;;;;5061216;28;20047;-76
2023/01/26 09:52:37;;;;;;;5.43;3.55;;;1.50;90.50;;;;;;5060574;28;20031;-76
2023/01/26 09:55:11;;;;;;;5.35;3.05;;;1.50;90.50;;;;;;5042565;28;20046;-76
2023/01/26 09:57:55;;;;;;;5.15;3.20;;;1.50;90.50;;;;;;5058006;28;20036;-76
2023/01/26 10:00:26;;;;;;;35.47;12.40;;;1.50;90.40;;;;;;5058673;28;20042;-76
2023/01/26 10:03:34;;;;;;;12.88;5.65;;;1.50;90.50;;;;;;5059865;28;20039;-76
2023/01/26 10:06:20;;;;;;;8.63;4.20;;;1.50;90.50;;;;;;5008229;28;20099;-76
2023/01/26 10:08:45;;;;;;;6.32;3.75;;;1.60;90.50;;;;;;5013756;28;20037;-76
2023/01/26 10:11:26;;;;;;;8.38;3.95;;;1.60;90.50;;;;;;5037698;28;20526;-75
2023/01/26 10:13:55;;;;;;;7.13;4.00;;;1.60;90.50;;;;;;5057644;28;20099;-74
2023/01/26 10:16:23;;;;;;;7.97;4.70;;;1.60;90.50;;;;;;5076310;28;20036;-77
2023/01/26 10:19:03;;;;;;;7.80;4.15;;;1.60;90.50;;;;;;5078168;28;20122;-74
2023/01/26 10:21:38;;;;;;;7.68;4.22;;;1.60;90.50;;;;;;5075654;28;20043;-76
2023/01/26 10:24:04;;;;;;;6.32;3.63;;;1.60;90.50;;;;;;5059040;28;20172;-76
2023/01/26 10:26:31;;;;;;;6.65;5.10;;;1.60;90.50;;;;;;5056034;28;20053;-75
2023/01/26 10:28:56;;;;;;;5.95;3.83;;;1.60;90.50;;;;;;5075067;28;20031;-77
2023/01/26 10:31:27;;;;;;;5.93;3.97;;;1.60;90.40;;;;;;5070968;28;20047;-76
2023/01/26 10:34:09;;;;;;;5.63;3.33;;;1.70;90.50;;;;;;5053667;28;20036;-76
2023/01/26 10:36:35;;;;;;;6.35;3.30;;;1.70;90.50;;;;;;5072660;28;20153;-76
2023/01/26 10:39:07;;;;;;;5.57;3.17;;;1.70;90.40;;;;;;5062595;28;20671;-76
2023/01/26 10:41:33;;;;;;;3.50;2.40;;;1.70;90.40;;;;;;5073734;28;20801;-76
2023/01/26 10:44:01;;;;;;;4.68;2.55;;;1.70;90.40;;;;;;5040860;28;20115;-77
2023/01/26 10:46:31;;;;;;;3.88;2.58;;;1.70;90.30;;;;;;5067758;28;20036;-75
2023/01/26 10:49:02;;;;;;;3.38;2.80;;;1.70;90.30;;;;;;5067711;28;20042;-76
2023/01/26 10:51:32;;;;;;;3.40;2.35;;;1.70;90.30;;;;;;5072479;28;20503;-76
2023/01/26 10:54:18;;;;;;;4.25;2.20;;;1.70;90.30;;;;;;5059098;28;20039;-76
2023/01/26 10:57:03;;;;;;;4.55;2.45;;;1.70;90.30;;;;;;5033255;28;20036;-76
2023/01/26 10:59:46;;;;;;;5.40;2.75;;;1.70;90.30;;;;;;5089949;28;20139;-76
2023/01/26 11:02:15;;;;;;;5.15;3.13;;;1.70;90.30;;;;;;5081005;28;20551;-75
2023/01/26 11:04:42;;;;;;;5.93;3.65;;;1.70;90.30;;;;;;5082670;28;20276;-76
2023/01/26 11:07:24;;;;;;;4.60;3.20;;;1.70;90.30;;;;;;5079247;28;20061;-76
2023/01/26 11:09:50;;;;;;;6.65;3.58;;;1.60;90.20;;;;;;5059224;28;20392;-77
2023/01/26 11:12:19;;;;;;;4.32;3.10;;;1.60;90.20;;;;;;5077620;28;20047;-77
2023/01/26 11:15:21;;;;;;;5.15;3.05;;;1.60;90.20;;;;;;5061651;27;20081;-77
2023/01/26 11:17:59;;;;;;;6.13;3.55;;;1.60;90.30;;;;;;5058857;28;20032;-77
2023/01/26 11:20:43;;;;;;;10.88;5.85;;;1.60;90.30;;;;;;5039493;28;20032;-77
2023/01/26 11:23:36;;;;;;;11.50;6.50;;;1.60;90.30;;;;;;5067942;28;20066;-77
2023/01/26 11:26:20;;;;;;;13.75;7.25;;;1.60;90.30;;;;;;5078978;27;20373;-77
2023/01/26 11:29:07;;;;;;;16.08;7.43;;;1.70;90.30;;;;;;5075447;28;20042;-77
2023/01/26 11:31:51;;;;;;;9.98;5.00;;;1.70;90.30;;;;;;5062478;28;20630;-77
2023/01/26 11:34:34;;;;;;;8.18;4.50;;;1.70;90.30;;;;;;5074665;28;20040;-75
2023/01/26 11:37:18;;;;;;;7.93;4.38;;;1.60;90.30;;;;;;5061680;28;20145;-77
2023/01/26 11:40:17;;;;;;;7.13;4.75;;;1.60;90.30;;;;;;5081203;28;20058;-77
2023/01/26 11:42:45;;;;;;;9.13;4.93;;;1.60;90.30;;;;;;5063137;28;20093;-77
2023/01/26 11:45:24;;;;;;;8.05;4.95;;;1.60;90.30;;;;;;5067632;27;20538;-77
2023/01/26 11:48:19;;;;;;;7.35;4.38;;;1.60;90.30;;;;;;5068065;28;20081;-75
2023/01/26 11:50:48;;;;;;;5.88;3.65;;;1.60;90.30;;;;;;5078591;27;20096;-77
2023/01/26 11:53:48;;;;;;;6.35;3.55;;;1.60;90.30;;;;;;5074658;28;20422;-76
2023/01/26 11:56:39;;;;;;;6.50;3.90;;;1.60;90.20;;;;;;5090977;27;20409;-77
2023/01/26 11:59:18;;;;;;;6.78;4.13;;;1.60;90.30;;;;;;5083640;27;20395;-76
2023/01/26 12:01:58;;;;;;;5.20;3.75;;;1.60;90.20;;;;;;5067956;28;20067;-77
2023/01/26 12:04:23;;;;;;;5.47;3.55;;;1.60;90.20;;;;;;5077338;28;20123;-77
2023/01/26 12:06:56;;;;;;;6.28;3.33;;;1.60;90.30;;;;;;5070442;28;20540;-77
2023/01/26 12:09:42;;;;;;;5.45;4.22;;;1.70;90.20;;;;;;5049735;28;20729;-77
2023/01/26 12:12:23;;;;;;;7.82;4.78;;;1.70;90.20;;;;;;5050817;28;20039;-77
2023/01/26 12:15:09;;;;;;;8.32;4.80;;;1.70;90.20;;;;;;5090642;28;20066;-77
2023/01/26 12:17:41;;;;;;;9.15;5.40;;;1.60;90.20;;;;;;5082490;28;20047;-77
2023/01/26 12:20:44;;;;;;;7.57;4.03;;;1.60;90.20;;;;;;5096999;27;20051;-76
2023/01/26 12:23:19;;;;;;;15.45;7.82;;;1.60;90.10;;;;;;5004346;28;20033;-77
2023/01/26 12:25:48;;;;;;;18.83;8.68;;;1.50;90.10;;;;;;4995468;28;20073;-78
2023/01/26 12:28:26;;;;;;;22.50;10.02;;;1.50;90.10;;;;;;4992321;28;20038;-77
2023/01/26 12:30:52;;;;;;;49.75;19.23;;;1.50;90.20;;;;;;4982446;28;20626;-78
2023/01/26 12:33:17;;;;;;;12.15;6.28;;;1.50;90.20;;;;;;5018275;28;20188;-77
2023/01/26 12:36:10;;;;;;;7.63;4.80;;;1.50;90.50;;;;;;5016005;28;20042;-76
2023/01/26 12:38:50;;;;;;;14.95;7.32;;;1.50;90.10;;;;;;5012322;28;20124;-77
2023/01/26 12:41:27;;;;;;;37.35;12.70;;;1.50;90.10;;;;;;4986339;28;20072;-77
2023/01/26 12:44:07;;;;;;;19.73;8.18;;;1.50;90.10;;;;;;4996793;28;20919;-78
2023/01/26 12:46:35;;;;;;;17.27;7.63;;;1.40;90.10;;;;;;5017241;28;20049;-77
2023/01/26 12:49:20;;;;;;;17.45;8.45;;;1.40;90.10;;;;;;5020174;28;20072;-77
2023/01/26 12:52:07;;;;;;;15.05;6.95;;;1.40;90.10;;;;;;4984376;28;20033;-78
2023/01/26 12:54:43;;;;;;;16.80;7.15;;;1.40;90.10;;;;;;4993526;28;20037;-73
2023/01/26 12:57:13;;;;;;;12.15;6.18;;;1.40;90.10;;;;;;5023793;28;20048;-73
2023/01/26 12:59:39;;;;;;;12.00;6.03;;;1.40;90.10;;;;;;5075593;28;20054;-73
2023/01/26 13:02:24;;;;;;;9.02;5.57;;;1.40;90.10;;;;;;5076750;28;20036;-77
2023/01/26 13:04:49;;;;;;;8.90;5.47;;;1.40;90.10;;;;;;5070449;28;20040;-77
2023/01/26 13:07:24;;;;;;;12.05;6.22;;;1.40;90.10;;;;;;5070400;28;20603;-76
2023/01/26 13:10:08;;;;;;;7.85;5.13;;;1.40;90.10;;;;;;5093440;28;20040;-75
2023/01/26 13:12:49;;;;;;;7.43;4.75;;;1.40;90.00;;;;;;5075777;28;20035;-76
2023/01/26 13:15:16;;;;;;;9.75;4.93;;;1.40;90.10;;;;;;5093326;27;20558;-76
2023/01/26 13:17:49;;;;;;;16.08;8.38;;;1.30;90.10;;;;;;5080848;27;20545;-76
2023/01/26 13:20:39;;;;;;;12.55;7.22;;;1.30;90.00;;;;;;5081924;28;20093;-76
2023/01/26 13:23:39;;;;;;;9.82;5.78;;;1.30;90.00;;;;;;5082850;27;20136;-75
2023/01/26 13:26:24;;;;;;;7.88;4.63;;;1.30;90.00;;;;;;5069443;28;20470;-76
2023/01/26 13:28:49;;;;;;;7.53;5.32;;;1.30;90.00;;;;;;5067882;28;20035;-76
2023/01/26 13:31:32;;;;;;;8.15;4.90;;;1.30;90.00;;;;;;5059791;27;20039;-76
2023/01/26 13:33:59;;;;;;;9.20;4.50;;;1.30;90.00;;;;;;5038066;28;20085;-77
2023/01/26 13:36:25;;;;;;;7.43;4.82;;;1.30;90.10;;;;;;5053442;28;20135;-75
2023/01/26 13:38:57;;;;;;;7.78;4.60;;;1.40;90.10;;;;;;5057948;28;20118;-75
2023/01/26 13:41:23;;;;;;;7.13;3.63;;;1.40;90.10;;;;;;5053399;28;20127;-76
2023/01/26 13:43:58;;;;;;;6.55;4.28;;;1.40;90.10;;;;;;5072792;28;20035;-76
2023/01/26 13:46:29;;;;;;;16.55;7.22;;;1.40;90.10;;;;;;5072667;28;20031;-76
2023/01/26 13:48:55;;;;;;;9.10;5.55;;;1.40;90.20;;;;;;5067818;28;20487;-76